Time;durP1;ratioP1;P1;durP2;ratioP2;P2;SDS_P1;SDS_P2;PMS_P1;PMS_P2;Temp;Humidity;BMP_temperature;BMP_pressure;BME280_temperature;BME280_humidity;BME280_pressure;Samples;Min_cycle;Max_cycle;Signal;HPM_P1;HPM_P2
2020/12/28 00:01:58;;;;;;;;;;;;;;;;;;5079530;28;19997;-69
2020/12/28 00:04:24;;;;;;;;;;;;;;;;;;5084712;28;20072;-70
2020/12/28 00:06:50;;;;;;;;;;;;;;;;;;5084497;28;19959;-69
2020/12/28 00:09:16;;;;;;;;;;;;;;;;;;5081534;28;20372;-69
2020/12/28 00:11:42;;;;;;;;;;;;;;;;;;5083955;28;20006;-69
2020/12/28 00:14:08;;;;;;;;;;;;;;;;;;5084531;28;20031;-69
2020/12/28 00:16:34;;;;;;;;;;;;;;;;;;5084459;28;19920;-68
2020/12/28 00:19:00;;;;;;;;;;;;;;;;;;5083328;28;19988;-68
2020/12/28 00:21:26;;;;;;;;;;;;;;;;;;5082921;28;19928;-68
2020/12/28 00:23:52;;;;;;;;;;;;;;;;;;5083546;28;19954;-69
2020/12/28 00:26:18;;;;;;;;;;;;;;;;;;5085859;28;19956;-69
2020/12/28 00:28:43;;;;;;;;;;;;;;;;;;5079567;28;19916;-67
2020/12/28 00:31:09;;;;;;;;;;;;;;;;;;5088184;28;19965;-70
2020/12/28 00:33:35;;;;;;;;;;;;;;;;;;5082954;28;19973;-69
2020/12/28 00:36:01;;;;;;;;;;;;;;;;;;5081684;28;19920;-69
2020/12/28 00:38:27;;;;;;;;;;;;;;;;;;5083674;28;20311;-70
2020/12/28 00:40:53;;;;;;;;;;;;;;;;;;5101293;22;19964;-68
2020/12/28 00:43:19;;;;;;;;;;;;;;;;;;5066977;28;20023;-69
2020/12/28 00:45:45;;;;;;;;;;;;;;;;;;5065734;28;19952;-69
2020/12/28 00:48:11;;;;;;;;;;;;;;;;;;5068569;28;20007;-68
2020/12/28 00:50:37;;;;;;;;;;;;;;;;;;5052049;28;20046;-69
2020/12/28 00:53:02;;;;;;;;;;;;;;;;;;5068332;28;20439;-69
2020/12/28 00:55:28;;;;;;;;;;;;;;;;;;5069289;28;19919;-69
2020/12/28 00:57:54;;;;;;;;;;;;;;;;;;5049898;28;19915;-69
2020/12/28 01:00:20;;;;;;;;;;;;;;;;;;5067698;28;20398;-68
2020/12/28 01:02:46;;;;;;;;;;;;;;;;;;5067223;28;19912;-68
2020/12/28 01:05:12;;;;;;;;;;;;;;;;;;5065891;28;19913;-68
2020/12/28 01:07:38;;;;;;;;;;;;;;;;;;5069032;28;20023;-68
2020/12/28 01:10:04;;;;;;;;;;;;;;;;;;5067082;28;19938;-69
2020/12/28 01:12:30;;;;;;;;;;;;;;;;;;5067252;28;19960;-68
2020/12/28 01:14:55;;;;;;;;;;;;;;;;;;5068300;28;20007;-67
2020/12/28 01:17:21;;;;;;;;;;;;;;;;;;5068787;28;19908;-69
2020/12/28 01:19:47;;;;;;;;;;;;;;;;;;5065558;28;20007;-68
2020/12/28 01:22:13;;;;;;;;;;;;;;;;;;5067666;28;19962;-69
2020/12/28 01:24:39;;;;;;;;;;;;;;;;;;5050413;28;20008;-69
2020/12/28 01:27:05;;;;;;;;;;;;;;;;;;5071129;28;20409;-68
2020/12/28 01:29:31;;;;;;;;;;;;;;;;;;5069190;28;19999;-69
2020/12/28 01:31:57;;;;;;;;;;;;;;;;;;5070672;28;19919;-69
2020/12/28 01:34:23;;;;;;;;;;;;;;;;;;5069132;28;20284;-69
2020/12/28 01:36:49;;;;;;;;;;;;;;;;;;5069783;28;19977;-69
2020/12/28 01:39:14;;;;;;;;;;;;;;;;;;5068766;28;19965;-69
2020/12/28 01:41:40;;;;;;;;;;;;;;;;;;5069685;28;20333;-69
2020/12/28 01:44:06;;;;;;;;;;;;;;;;;;5069887;28;19912;-69
2020/12/28 01:46:32;;;;;;;;;;;;;;;;;;5069770;28;20058;-69
2020/12/28 01:48:58;;;;;;;;;;;;;;;;;;5069199;28;20058;-68
2020/12/28 01:51:24;;;;;;;;;;;;;;;;;;5069089;28;20376;-69
2020/12/28 01:53:50;;;;;;;;;;;;;;;;;;5071234;28;19990;-68
2020/12/28 01:56:16;;;;;;;;;;;;;;;;;;5052421;28;19955;-68
2020/12/28 01:58:42;;;;;;;;;;;;;;;;;;5070780;28;19959;-68
2020/12/28 02:01:08;;;;;;;;;;;;;;;;;;5067958;28;20401;-69
2020/12/28 02:03:33;;;;;;;;;;;;;;;;;;5068250;28;20445;-67
2020/12/28 02:05:59;;;;;;;;;;;;;;;;;;5069718;28;20674;-69
2020/12/28 02:08:25;;;;;;;;;;;;;;;;;;5068291;28;20004;-70
2020/12/28 02:10:51;;;;;;;;;;;;;;;;;;5069026;28;20007;-68
2020/12/28 02:13:17;;;;;;;;;;;;;;;;;;5063045;28;20325;-68
2020/12/28 02:15:43;;;;;;;;;;;;;;;;;;5069659;28;19934;-69
2020/12/28 02:18:09;;;;;;;;;;;;;;;;;;5070125;28;19966;-70
2020/12/28 02:20:35;;;;;;;;;;;;;;;;;;5074389;28;20332;-70
2020/12/28 02:23:00;;;;;;;;;;;;;;;;;;5071768;28;19919;-70
2020/12/28 02:25:26;;;;;;;;;;;;;;;;;;5072652;28;19915;-71
2020/12/28 02:27:52;;;;;;;;;;;;;;;;;;5069820;28;20290;-70
2020/12/28 02:30:18;;;;;;;;;;;;;;;;;;5051371;28;19919;-70
2020/12/28 02:32:44;;;;;;;;;;;;;;;;;;5070416;28;19932;-70
2020/12/28 02:35:10;;;;;;;;;;;;;;;;;;5054729;28;19951;-70
2020/12/28 02:37:36;;;;;;;;;;;;;;;;;;5074326;28;19948;-70
2020/12/28 02:40:02;;;;;;;;;;;;;;;;;;5072104;28;19996;-70
2020/12/28 02:42:28;;;;;;;;;;;;;;;;;;5074271;28;19951;-69
2020/12/28 02:44:54;;;;;;;;;;;;;;;;;;5072500;28;19955;-69
2020/12/28 02:47:19;;;;;;;;;;;;;;;;;;5073386;28;20332;-70
2020/12/28 02:49:45;;;;;;;;;;;;;;;;;;5071561;28;20006;-69
2020/12/28 02:52:11;;;;;;;;;;;;;;;;;;5073087;28;19956;-70
2020/12/28 02:54:37;;;;;;;;;;;;;;;;;;5070841;28;20012;-70
2020/12/28 02:57:03;;;;;;;;;;;;;;;;;;5072161;28;20376;-70
2020/12/28 02:59:29;;;;;;;;;;;;;;;;;;5073035;28;20389;-70
2020/12/28 03:01:55;;;;;;;;;;;;;;;;;;5054228;28;20368;-70
2020/12/28 03:04:21;;;;;;;;;;;;;;;;;;5069981;28;19986;-71
2020/12/28 03:06:47;;;;;;;;;;;;;;;;;;5073580;28;19952;-70
2020/12/28 03:09:13;;;;;;;;;;;;;;;;;;5072972;28;19996;-69
2020/12/28 03:11:38;;;;;;;;;;;;;;;;;;5072526;28;19951;-70
2020/12/28 03:14:04;;;;;;;;;;;;;;;;;;5051884;28;19999;-70
2020/12/28 03:16:30;;;;;;;;;;;;;;;;;;5073537;28;20385;-69
2020/12/28 03:18:56;;;;;;;;;;;;;;;;;;5071527;28;19912;-69
2020/12/28 03:21:22;;;;;;;;;;;;;;;;;;5054821;28;19944;-70
2020/12/28 03:23:48;;;;;;;;;;;;;;;;;;5070007;28;20289;-70
2020/12/28 03:26:14;;;;;;;;;;;;;;;;;;5071965;28;19973;-70
2020/12/28 03:28:40;;;;;;;;;;;;;;;;;;5070891;28;20000;-70
2020/12/28 03:31:06;;;;;;;;;;;;;;;;;;5054652;28;20368;-70
2020/12/28 03:33:32;;;;;;;;;;;;;;;;;;5071791;28;19947;-70
2020/12/28 03:35:58;;;;;;;;;;;;;;;;;;5071601;28;19958;-70
2020/12/28 03:38:23;;;;;;;;;;;;;;;;;;5071786;28;20000;-70
2020/12/28 03:40:49;;;;;;;;;;;;;;;;;;5071934;28;19965;-70
2020/12/28 03:43:15;;;;;;;;;;;;;;;;;;5071276;28;19916;-71
2020/12/28 03:45:41;;;;;;;;;;;;;;;;;;5072657;28;20253;-70
2020/12/28 03:48:07;;;;;;;;;;;;;;;;;;5070486;28;20398;-70
2020/12/28 03:50:33;;;;;;;;;;;;;;;;;;5071741;28;21710;-70
2020/12/28 03:52:59;;;;;;;;;;;;;;;;;;5070738;28;19972;-70
2020/12/28 03:55:25;;;;;;;;;;;;;;;;;;5071008;28;19924;-70
2020/12/28 03:57:51;;;;;;;;;;;;;;;;;;5071319;28;20013;-70
2020/12/28 04:00:17;;;;;;;;;;;;;;;;;;5072176;28;20295;-70
2020/12/28 04:02:43;;;;;;;;;;;;;;;;;;5071252;28;19944;-70
2020/12/28 04:05:08;;;;;;;;;;;;;;;;;;5070593;28;20001;-70
2020/12/28 04:07:34;;;;;;;;;;;;;;;;;;5071690;28;19959;-69
2020/12/28 04:10:00;;;;;;;;;;;;;;;;;;5071109;28;19916;-70
2020/12/28 04:12:26;;;;;;;;;;;;;;;;;;5072662;28;19947;-70
2020/12/28 04:14:52;;;;;;;;;;;;;;;;;;5070505;28;20295;-70
2020/12/28 04:17:18;;;;;;;;;;;;;;;;;;5071287;28;19913;-70
2020/12/28 04:19:44;;;;;;;;;;;;;;;;;;5070516;28;19955;-70
2020/12/28 04:22:10;;;;;;;;;;;;;;;;;;5070549;28;20377;-70
2020/12/28 04:24:36;;;;;;;;;;;;;;;;;;5072724;28;20549;-70
2020/12/28 04:27:01;;;;;;;;;;;;;;;;;;5047111;28;19963;-70
2020/12/28 04:29:27;;;;;;;;;;;;;;;;;;5071849;28;20023;-70
2020/12/28 04:31:53;;;;;;;;;;;;;;;;;;5070971;28;19919;-70
2020/12/28 04:34:19;;;;;;;;;;;;;;;;;;5070941;28;19930;-70
2020/12/28 04:36:45;;;;;;;;;;;;;;;;;;5053976;28;19938;-70
2020/12/28 04:39:11;;;;;;;;;;;;;;;;;;5068268;28;19958;-67
2020/12/28 04:41:37;;;;;;;;;;;;;;;;;;5071422;28;19965;-70
2020/12/28 04:44:03;;;;;;;;;;;;;;;;;;5068992;28;20268;-70
2020/12/28 04:46:29;;;;;;;;;;;;;;;;;;5053324;28;19920;-70
2020/12/28 04:48:55;;;;;;;;;;;;;;;;;;5070141;28;20299;-69
2020/12/28 04:51:21;;;;;;;;;;;;;;;;;;5070986;28;19920;-68
2020/12/28 04:53:47;;;;;;;;;;;;;;;;;;5071619;28;19977;-68
2020/12/28 04:56:13;;;;;;;;;;;;;;;;;;5070056;28;20387;-68
2020/12/28 04:58:38;;;;;;;;;;;;;;;;;;5047075;28;19959;-68
2020/12/28 05:01:04;;;;;;;;;;;;;;;;;;5067260;28;20005;-68
2020/12/28 05:03:30;;;;;;;;;;;;;;;;;;5071784;28;20003;-68
2020/12/28 05:05:56;;;;;;;;;;;;;;;;;;5068550;28;20039;-69
2020/12/28 05:08:22;;;;;;;;;;;;;;;;;;5070063;28;19952;-68
2020/12/28 05:10:48;;;;;;;;;;;;;;;;;;5069445;28;20407;-69
2020/12/28 05:13:14;;;;;;;;;;;;;;;;;;5069713;28;19962;-68
2020/12/28 05:15:40;;;;;;;;;;;;;;;;;;5068736;28;19912;-68
2020/12/28 05:18:06;;;;;;;;;;;;;;;;;;5066986;28;20265;-69
2020/12/28 05:20:32;;;;;;;;;;;;;;;;;;5069405;28;19913;-69
2020/12/28 05:22:58;;;;;;;;;;;;;;;;;;5069681;28;19938;-69
2020/12/28 05:25:24;;;;;;;;;;;;;;;;;;5069488;28;19955;-69
2020/12/28 05:27:50;;;;;;;;;;;;;;;;;;5051093;28;19963;-69
2020/12/28 05:30:16;;;;;;;;;;;;;;;;;;5052673;28;20577;-68
2020/12/28 05:32:42;;;;;;;;;;;;;;;;;;5070246;28;21672;-68
2020/12/28 05:35:08;;;;;;;;;;;;;;;;;;5068594;28;20046;-69
2020/12/28 05:37:34;;;;;;;;;;;;;;;;;;5071073;28;19948;-69
2020/12/28 05:39:59;;;;;;;;;;;;;;;;;;5052256;28;20362;-69
2020/12/28 05:42:25;;;;;;;;;;;;;;;;;;5070546;28;19916;-70
2020/12/28 05:44:51;;;;;;;;;;;;;;;;;;5068043;28;19913;-69
2020/12/28 05:47:17;;;;;;;;;;;;;;;;;;5070835;28;20276;-69
2020/12/28 05:49:43;;;;;;;;;;;;;;;;;;5069699;28;19913;-69
2020/12/28 05:52:09;;;;;;;;;;;;;;;;;;5076158;28;19926;-68
2020/12/28 05:54:35;;;;;;;;;;;;;;;;;;5068195;28;19954;-68
2020/12/28 05:57:01;;;;;;;;;;;;;;;;;;5069589;28;20468;-69
2020/12/28 05:59:27;;;;;;;;;;;;;;;;;;5070310;28;20402;-70
2020/12/28 06:01:53;;;;;;;;;;;;;;;;;;5066810;28;20392;-69
2020/12/28 06:04:19;;;;;;;;;;;;;;;;;;5069443;28;19993;-69
2020/12/28 06:06:45;;;;;;;;;;;;;;;;;;5066763;28;20082;-69
2020/12/28 06:09:11;;;;;;;;;;;;;;;;;;5068285;28;19966;-69
2020/12/28 06:11:36;;;;;;;;;;;;;;;;;;5054781;28;19913;-68
2020/12/28 06:14:02;;;;;;;;;;;;;;;;;;5066996;28;19912;-68
2020/12/28 06:16:28;;;;;;;;;;;;;;;;;;5055379;28;20008;-68
2020/12/28 06:18:54;;;;;;;;;;;;;;;;;;5074214;28;19919;-68
2020/12/28 06:21:20;;;;;;;;;;;;;;;;;;5053577;28;20318;-68
2020/12/28 06:23:46;;;;;;;;;;;;;;;;;;5055656;28;19963;-68
2020/12/28 06:26:12;;;;;;;;;;;;;;;;;;5071833;28;20003;-69
2020/12/28 06:28:38;;;;;;;;;;;;;;;;;;5073311;28;19920;-69
2020/12/28 06:31:04;;;;;;;;;;;;;;;;;;5070152;28;20338;-69
2020/12/28 06:33:29;;;;;;;;;;;;;;;;;;5073778;28;19913;-70
2020/12/28 06:35:55;;;;;;;;;;;;;;;;;;5072247;28;19912;-69
2020/12/28 06:38:21;;;;;;;;;;;;;;;;;;5074023;28;20399;-69
2020/12/28 06:43:20;;;;;;;;;;;;;;;;;;5064242;28;20195;-68
2020/12/28 06:45:46;;;;;;;;;;;;;;;;;;5067130;28;19979;-70
2020/12/28 06:48:12;;;;;;;;;;;;;;;;;;5065737;28;20043;-69
2020/12/28 06:50:38;;;;;;;;;;;;;;;;;;5071577;28;19917;-70
2020/12/28 06:53:04;;;;;;;;;;;;;;;;;;5066001;28;20342;-69
2020/12/28 06:55:30;;;;;;;;;;;;;;;;;;5066618;28;19963;-70
2020/12/28 06:57:56;;;;;;;;;;;;;;;;;;5054340;28;19954;-70
2020/12/28 07:00:22;;;;;;;;;;;;;;;;;;5052156;28;19952;-69
2020/12/28 07:02:48;;;;;;;;;;;;;;;;;;5052397;28;20376;-69
2020/12/28 07:05:13;;;;;;;;;;;;;;;;;;5051037;28;19991;-70
2020/12/28 07:07:39;;;;;;;;;;;;;;;;;;5052890;28;20142;-69
2020/12/28 07:10:05;;;;;;;;;;;;;;;;;;5054383;28;20531;-69
2020/12/28 07:12:31;;;;;;;;;;;;;;;;;;5057508;28;19974;-70
2020/12/28 07:14:57;;;;;;;;;;;;;;;;;;5051400;28;19955;-69
2020/12/28 07:17:23;;;;;;;;;;;;;;;;;;5051404;28;19947;-69
2020/12/28 07:19:49;;;;;;;;;;;;;;;;;;5047610;28;19996;-69
2020/12/28 07:22:15;;;;;;;;;;;;;;;;;;5055019;28;20515;-69
2020/12/28 07:24:41;;;;;;;;;;;;;;;;;;5050933;28;19965;-70
2020/12/28 07:27:06;;;;;;;;;;;;;;;;;;5051359;28;19927;-69
2020/12/28 07:29:32;;;;;;;;;;;;;;;;;;5052112;28;20391;-70
2020/12/28 07:31:58;;;;;;;;;;;;;;;;;;5054870;28;20006;-69
2020/12/28 07:34:24;;;;;;;;;;;;;;;;;;5049412;28;19913;-70
2020/12/28 07:36:54;;;;;;;;;;;;;;;;;;5048963;28;19912;-69
2020/12/28 07:39:20;;;;;;;;;;;;;;;;;;5049980;28;19919;-69
2020/12/28 07:41:46;;;;;;;;;;;;;;;;;;5056027;28;19916;-70
2020/12/28 07:44:13;;;;;;;;;;;;;;;;;;5055895;28;20015;-69
2020/12/28 07:46:39;;;;;;;;;;;;;;;;;;5058860;28;19978;-70
2020/12/28 07:49:05;;;;;;;;;;;;;;;;;;5063662;28;19916;-69
2020/12/28 07:51:30;;;;;;;;;;;;;;;;;;5051342;28;19913;-70
2020/12/28 07:53:56;;;;;;;;;;;;;;;;;;5055734;28;19978;-70
2020/12/28 07:56:22;;;;;;;;;;;;;;;;;;5052692;28;19956;-70
2020/12/28 07:58:48;;;;;;;;;;;;;;;;;;5052368;28;19977;-68
2020/12/28 08:01:14;;;;;;;;;;;;;;;;;;5049859;28;19960;-68
2020/12/28 08:03:40;;;;;;;;;;;;;;;;;;5052622;28;19944;-68
2020/12/28 08:06:06;;;;;;;;;;;;;;;;;;5053837;28;19952;-69
2020/12/28 08:08:32;;;;;;;;;;;;;;;;;;5054023;28;19924;-69
2020/12/28 08:10:58;;;;;;;;;;;;;;;;;;5051493;28;19917;-68
2020/12/28 08:13:24;;;;;;;;;;;;;;;;;;5050611;28;19962;-69
2020/12/28 08:15:50;;;;;;;;;;;;;;;;;;5040982;28;19951;-69
2020/12/28 08:18:16;;;;;;;;;;;;;;;;;;5050642;28;19909;-68
2020/12/28 08:20:42;;;;;;;;;;;;;;;;;;5049685;28;20016;-69
2020/12/28 08:23:07;;;;;;;;;;;;;;;;;;5052134;28;19964;-68
2020/12/28 08:25:33;;;;;;;;;;;;;;;;;;5049487;28;20373;-69
2020/12/28 08:27:59;;;;;;;;;;;;;;;;;;5048019;28;20009;-68
2020/12/28 08:30:25;;;;;;;;;;;;;;;;;;5048656;28;19923;-69
2020/12/28 08:32:51;;;;;;;;;;;;;;;;;;5049775;28;19935;-70
2020/12/28 08:35:17;;;;;;;;;;;;;;;;;;5049933;28;20003;-69
2020/12/28 08:37:43;;;;;;;;;;;;;;;;;;5050431;28;20323;-69
2020/12/28 08:40:09;;;;;;;;;;;;;;;;;;5046627;28;19951;-69
2020/12/28 08:42:35;;;;;;;;;;;;;;;;;;5049662;28;20012;-69
2020/12/28 08:45:01;;;;;;;;;;;;;;;;;;5053442;28;20387;-68
2020/12/28 08:47:28;;;;;;;;;;;;;;;;;;5048287;28;19924;-67
2020/12/28 08:49:54;;;;;;;;;;;;;;;;;;5057963;28;20362;-68
2020/12/28 08:52:20;;;;;;;;;;;;;;;;;;5048001;28;20008;-69
2020/12/28 08:54:46;;;;;;;;;;;;;;;;;;5045791;28;20007;-69
2020/12/28 08:57:12;;;;;;;;;;;;;;;;;;5049960;28;19956;-69
2020/12/28 08:59:38;;;;;;;;;;;;;;;;;;5050612;28;19948;-69
2020/12/28 09:02:04;;;;;;;;;;;;;;;;;;5050996;28;20317;-69
2020/12/28 09:04:30;;;;;;;;;;;;;;;;;;5053655;28;20399;-68
2020/12/28 09:06:55;;;;;;;;;;;;;;;;;;5047079;28;19995;-68
2020/12/28 09:09:21;;;;;;;;;;;;;;;;;;5047011;28;19917;-69
2020/12/28 09:11:47;;;;;;;;;;;;;;;;;;5049529;28;20376;-70
2020/12/28 09:14:13;;;;;;;;;;;;;;;;;;5047817;28;19959;-69
2020/12/28 09:16:39;;;;;;;;;;;;;;;;;;5049402;28;19999;-69
2020/12/28 09:19:05;;;;;;;;;;;;;;;;;;5045372;28;19956;-69
2020/12/28 09:21:31;;;;;;;;;;;;;;;;;;5049292;28;19979;-69
2020/12/28 09:23:57;;;;;;;;;;;;;;;;;;5049897;28;20335;-69
2020/12/28 09:26:23;;;;;;;;;;;;;;;;;;5041471;28;19992;-69
2020/12/28 09:28:49;;;;;;;;;;;;;;;;;;5043950;28;19955;-70
2020/12/28 09:31:16;;;;;;;;;;;;;;;;;;5049173;28;19997;-68
2020/12/28 09:33:42;;;;;;;;;;;;;;;;;;5040151;28;19920;-68
2020/12/28 09:36:07;;;;;;;;;;;;;;;;;;5049344;28;19916;-68
2020/12/28 09:38:33;;;;;;;;;;;;;;;;;;5048386;28;19919;-66
2020/12/28 09:40:59;;;;;;;;;;;;;;;;;;5051161;28;19923;-69
2020/12/28 09:43:25;;;;;;;;;;;;;;;;;;5043512;28;19948;-70
2020/12/28 09:45:51;;;;;;;;;;;;;;;;;;5045401;28;20357;-70
2020/12/28 09:48:17;;;;;;;;;;;;;;;;;;5047037;28;20372;-70
2020/12/28 09:50:43;;;;;;;;;;;;;;;;;;5049735;28;20009;-69
2020/12/28 09:53:09;;;;;;;;;;;;;;;;;;5051121;28;19928;-70
2020/12/28 09:55:35;;;;;;;;;;;;;;;;;;5047807;28;19960;-69
2020/12/28 09:58:04;;;;;;;;;;;;;;;;;;5051981;28;19959;-67
2020/12/28 10:00:30;;;;;;;;;;;;;;;;;;5051937;28;19952;-70
2020/12/28 10:02:56;;;;;;;;;;;;;;;;;;5049364;28;19963;-72
2020/12/28 10:05:22;;;;;;;;;;;;;;;;;;5047208;28;20369;-71
2020/12/28 10:07:47;;;;;;;;;;;;;;;;;;5050340;28;19913;-70
2020/12/28 10:10:13;;;;;;;;;;;;;;;;;;5069600;28;19948;-69
2020/12/28 10:12:40;;;;;;;;;;;;;;;;;;5070820;28;19908;-70
2020/12/28 10:15:06;;;;;;;;;;;;;;;;;;5071039;28;20330;-70
2020/12/28 10:17:32;;;;;;;;;;;;;;;;;;5070531;28;19959;-71
2020/12/28 10:19:58;;;;;;;;;;;;;;;;;;5068334;28;19999;-70
2020/12/28 10:22:24;;;;;;;;;;;;;;;;;;5048919;28;19948;-71
2020/12/28 10:24:52;;;;;;;;;;;;;;;;;;5049572;28;20016;-71
2020/12/28 10:27:17;;;;;;;;;;;;;;;;;;5050629;28;20361;-71
2020/12/28 10:29:43;;;;;;;;;;;;;;;;;;5049247;28;19956;-71
2020/12/28 10:32:09;;;;;;;;;;;;;;;;;;5050298;28;19956;-71
2020/12/28 10:34:35;;;;;;;;;;;;;;;;;;5050768;28;20361;-70
2020/12/28 10:37:01;;;;;;;;;;;;;;;;;;5058734;28;19958;-71
2020/12/28 10:39:27;;;;;;;;;;;;;;;;;;5062584;28;19995;-72
2020/12/28 10:41:53;;;;;;;;;;;;;;;;;;5069189;28;19948;-71
2020/12/28 10:44:19;;;;;;;;;;;;;;;;;;5070755;28;19998;-71
2020/12/28 10:46:45;;;;;;;;;;;;;;;;;;5070653;28;19923;-71
2020/12/28 10:49:11;;;;;;;;;;;;;;;;;;5070685;28;19908;-71
2020/12/28 10:51:37;;;;;;;;;;;;;;;;;;5069290;28;19905;-71
2020/12/28 10:54:03;;;;;;;;;;;;;;;;;;5070181;28;19908;-71
2020/12/28 10:56:29;;;;;;;;;;;;;;;;;;5073827;28;19904;-71
2020/12/28 10:58:55;;;;;;;;;;;;;;;;;;5073899;28;19913;-71
2020/12/28 11:01:21;;;;;;;;;;;;;;;;;;5073751;28;20372;-71
2020/12/28 11:03:47;;;;;;;;;;;;;;;;;;5072909;28;19999;-71
2020/12/28 11:06:13;;;;;;;;;;;;;;;;;;5072336;28;19955;-70
2020/12/28 11:08:39;;;;;;;;;;;;;;;;;;5065419;28;19956;-71
2020/12/28 11:11:05;;;;;;;;;;;;;;;;;;5072582;28;20007;-71
2020/12/28 11:13:31;;;;;;;;;;;;;;;;;;5073892;28;19909;-71
2020/12/28 11:15:57;;;;;;;;;;;;;;;;;;5073488;28;19916;-70
2020/12/28 11:18:23;;;;;;;;;;;;;;;;;;5072414;28;20288;-71
2020/12/28 11:20:48;;;;;;;;;;;;;;;;;;5053772;28;19967;-70
2020/12/28 11:23:14;;;;;;;;;;;;;;;;;;5050430;28;19967;-70
2020/12/28 11:25:40;;;;;;;;;;;;;;;;;;5037175;28;20092;-69
2020/12/28 11:28:06;;;;;;;;;;;;;;;;;;5044380;28;19968;-71
2020/12/28 11:30:32;;;;;;;;;;;;;;;;;;5036696;28;19944;-70
2020/12/28 11:32:58;;;;;;;;;;;;;;;;;;5044968;28;19948;-70
2020/12/28 11:35:24;;;;;;;;;;;;;;;;;;5040081;28;19910;-71
2020/12/28 11:37:50;;;;;;;;;;;;;;;;;;5059991;28;19952;-71
2020/12/28 11:40:16;;;;;;;;;;;;;;;;;;5062249;28;19919;-71
2020/12/28 11:42:42;;;;;;;;;;;;;;;;;;5079386;28;20361;-69
2020/12/28 11:45:09;;;;;;;;;;;;;;;;;;5051081;28;19909;-71
2020/12/28 11:47:35;;;;;;;;;;;;;;;;;;5040895;28;20277;-70
2020/12/28 11:50:01;;;;;;;;;;;;;;;;;;5036658;28;20357;-72
2020/12/28 11:52:27;;;;;;;;;;;;;;;;;;5042699;28;19925;-70
2020/12/28 11:54:53;;;;;;;;;;;;;;;;;;5040264;28;19909;-70
2020/12/28 11:57:18;;;;;;;;;;;;;;;;;;5033181;28;20333;-71
2020/12/28 11:59:44;;;;;;;;;;;;;;;;;;5031524;28;19979;-71
2020/12/28 12:02:10;;;;;;;;;;;;;;;;;;5031589;28;19971;-71
2020/12/28 12:04:49;;;;;;;;;;;;;;;;;;5033170;28;19909;-71
2020/12/28 12:07:15;;;;;;;;;;;;;;;;;;5053672;28;19974;-70
2020/12/28 12:09:41;;;;;;;;;;;;;;;;;;5066723;28;19964;-70
2020/12/28 12:12:07;;;;;;;;;;;;;;;;;;5071003;28;20359;-71
2020/12/28 12:14:33;;;;;;;;;;;;;;;;;;5071513;28;20384;-70
2020/12/28 12:16:59;;;;;;;;;;;;;;;;;;5071281;28;19908;-71
2020/12/28 12:19:25;;;;;;;;;;;;;;;;;;5067253;28;20347;-72
2020/12/28 12:21:51;;;;;;;;;;;;;;;;;;5051081;28;19916;-70
2020/12/28 12:24:17;;;;;;;;;;;;;;;;;;5052944;28;20268;-71
2020/12/28 12:26:43;;;;;;;;;;;;;;;;;;5052090;28;19912;-70
2020/12/28 12:29:09;;;;;;;;;;;;;;;;;;5052296;28;19940;-71
2020/12/28 12:31:35;;;;;;;;;;;;;;;;;;5051320;28;19955;-71
2020/12/28 12:34:01;;;;;;;;;;;;;;;;;;5049393;28;20372;-70
2020/12/28 12:36:27;;;;;;;;;;;;;;;;;;5069910;28;19975;-71
2020/12/28 12:38:53;;;;;;;;;;;;;;;;;;5063895;28;19909;-71
2020/12/28 12:41:19;;;;;;;;;;;;;;;;;;5062078;28;20438;-71
2020/12/28 12:43:44;;;;;;;;;;;;;;;;;;5071218;28;20316;-70
2020/12/28 12:46:10;;;;;;;;;;;;;;;;;;5067803;28;20007;-69
2020/12/28 12:48:36;;;;;;;;;;;;;;;;;;5037143;28;19996;-70
2020/12/28 12:51:02;;;;;;;;;;;;;;;;;;5032081;28;20361;-71
2020/12/28 12:53:28;;;;;;;;;;;;;;;;;;5031220;28;19919;-69
2020/12/28 12:55:54;;;;;;;;;;;;;;;;;;5050596;28;19913;-69
2020/12/28 12:58:20;;;;;;;;;;;;;;;;;;5050820;28;19998;-70
2020/12/28 13:00:46;;;;;;;;;;;;;;;;;;5047627;28;19952;-70
2020/12/28 13:03:12;;;;;;;;;;;;;;;;;;5049225;28;19912;-70
2020/12/28 13:05:38;;;;;;;;;;;;;;;;;;5047664;28;19959;-70
2020/12/28 13:08:04;;;;;;;;;;;;;;;;;;5047408;28;20384;-70
2020/12/28 13:10:32;;;;;;;;;;;;;;;;;;5047736;28;19988;-70
2020/12/28 13:12:58;;;;;;;;;;;;;;;;;;5048432;28;19975;-70
2020/12/28 13:15:24;;;;;;;;;;;;;;;;;;5069839;28;20651;-70
2020/12/28 13:17:50;;;;;;;;;;;;;;;;;;5056603;28;19952;-70
2020/12/28 13:20:17;;;;;;;;;;;;;;;;;;5037832;28;20339;-70
2020/12/28 13:22:43;;;;;;;;;;;;;;;;;;5052577;28;19967;-70
2020/12/28 13:25:09;;;;;;;;;;;;;;;;;;5054136;28;19917;-70
2020/12/28 13:27:35;;;;;;;;;;;;;;;;;;5039035;28;20566;-68
2020/12/28 13:30:00;;;;;;;;;;;;;;;;;;5054321;28;19913;-69
2020/12/28 13:32:26;;;;;;;;;;;;;;;;;;5040366;28;19909;-69
2020/12/28 13:34:52;;;;;;;;;;;;;;;;;;5056580;28;19909;-68
2020/12/28 13:37:18;;;;;;;;;;;;;;;;;;5041977;28;19913;-69
2020/12/28 13:39:45;;;;;;;;;;;;;;;;;;5040447;28;20383;-70
2020/12/28 13:42:11;;;;;;;;;;;;;;;;;;5040997;28;19996;-70
2020/12/28 13:44:37;;;;;;;;;;;;;;;;;;5053425;28;19942;-68
2020/12/28 13:47:03;;;;;;;;;;;;;;;;;;5048178;28;19953;-69
2020/12/28 13:49:28;;;;;;;;;;;;;;;;;;5041090;28;19924;-69
2020/12/28 13:51:54;;;;;;;;;;;;;;;;;;5039780;28;20586;-69
2020/12/28 13:54:20;;;;;;;;;;;;;;;;;;5055400;28;20004;-69
2020/12/28 13:56:46;;;;;;;;;;;;;;;;;;5056771;28;19909;-68
2020/12/28 13:59:12;;;;;;;;;;;;;;;;;;5040818;28;20369;-69
2020/12/28 14:01:38;;;;;;;;;;;;;;;;;;5039696;28;19920;-69
2020/12/28 14:04:04;;;;;;;;;;;;;;;;;;5041596;28;20387;-69
2020/12/28 14:06:35;;;;;;;;;;;;;;;;;;5040350;28;19921;-68
2020/12/28 14:09:03;;;;;;;;;;;;;;;;;;5046880;28;19909;-69
2020/12/28 14:11:29;;;;;;;;;;;;;;;;;;5040005;28;20050;-69
2020/12/28 14:13:55;;;;;;;;;;;;;;;;;;5040318;28;19941;-70
2020/12/28 14:16:21;;;;;;;;;;;;;;;;;;5041685;28;19920;-69
2020/12/28 14:18:47;;;;;;;;;;;;;;;;;;5038404;28;19949;-69
2020/12/28 14:21:15;;;;;;;;;;;;;;;;;;5055696;28;19909;-69
2020/12/28 14:23:44;;;;;;;;;;;;;;;;;;5041918;28;19909;-69
2020/12/28 14:26:10;;;;;;;;;;;;;;;;;;5043518;28;19909;-69
2020/12/28 14:28:36;;;;;;;;;;;;;;;;;;5042519;28;20360;-69
2020/12/28 14:31:02;;;;;;;;;;;;;;;;;;5044372;28;19915;-69
2020/12/28 14:33:28;;;;;;;;;;;;;;;;;;5043580;28;19952;-69
2020/12/28 14:35:55;;;;;;;;;;;;;;;;;;5044623;28;19917;-68
2020/12/28 14:38:21;;;;;;;;;;;;;;;;;;5048299;28;19909;-69
2020/12/28 14:40:47;;;;;;;;;;;;;;;;;;5044644;28;19916;-69
2020/12/28 14:43:13;;;;;;;;;;;;;;;;;;5042848;28;19917;-69
2020/12/28 14:45:39;;;;;;;;;;;;;;;;;;5043492;28;19917;-69
2020/12/28 14:48:08;;;;;;;;;;;;;;;;;;5060058;28;19968;-68
2020/12/28 14:50:34;;;;;;;;;;;;;;;;;;5044443;28;20383;-69
2020/12/28 14:53:00;;;;;;;;;;;;;;;;;;5042804;28;20018;-69
2020/12/28 14:55:29;;;;;;;;;;;;;;;;;;5044980;28;19909;-69
2020/12/28 14:57:54;;;;;;;;;;;;;;;;;;5044245;28;20009;-69
2020/12/28 15:00:21;;;;;;;;;;;;;;;;;;5058412;28;20400;-69
2020/12/28 15:02:47;;;;;;;;;;;;;;;;;;5059264;28;20372;-69
2020/12/28 15:05:13;;;;;;;;;;;;;;;;;;5042618;28;19963;-69
2020/12/28 15:07:39;;;;;;;;;;;;;;;;;;5060425;28;19971;-69
2020/12/28 15:10:05;;;;;;;;;;;;;;;;;;5062838;28;20524;-69
2020/12/28 15:12:34;;;;;;;;;;;;;;;;;;5045280;28;19909;-69
2020/12/28 15:15:00;;;;;;;;;;;;;;;;;;5044678;28;19917;-69
2020/12/28 15:17:26;;;;;;;;;;;;;;;;;;5042032;28;19951;-67
2020/12/28 15:19:52;;;;;;;;;;;;;;;;;;5060684;28;19909;-69
2020/12/28 15:22:17;;;;;;;;;;;;;;;;;;5039931;28;20002;-69
2020/12/28 15:24:43;;;;;;;;;;;;;;;;;;5040923;28;20391;-68
2020/12/28 15:27:09;;;;;;;;;;;;;;;;;;5053669;28;19970;-68
2020/12/28 15:29:35;;;;;;;;;;;;;;;;;;5063027;28;19960;-68
2020/12/28 15:32:01;;;;;;;;;;;;;;;;;;5033802;28;20428;-69
2020/12/28 15:34:27;;;;;;;;;;;;;;;;;;5033915;28;19916;-70
2020/12/28 15:36:53;;;;;;;;;;;;;;;;;;5032374;28;20357;-68
2020/12/28 15:39:19;;;;;;;;;;;;;;;;;;5043415;28;19951;-68
2020/12/28 15:41:45;;;;;;;;;;;;;;;;;;5064593;28;19920;-69
2020/12/28 15:44:11;;;;;;;;;;;;;;;;;;5073386;28;19916;-69
2020/12/28 15:46:37;;;;;;;;;;;;;;;;;;5071934;28;19916;-69
2020/12/28 15:49:03;;;;;;;;;;;;;;;;;;5071393;28;19952;-69
2020/12/28 15:51:29;;;;;;;;;;;;;;;;;;5057963;28;20007;-68
2020/12/28 15:53:55;;;;;;;;;;;;;;;;;;5034230;28;20003;-69
2020/12/28 15:56:20;;;;;;;;;;;;;;;;;;5033327;28;19909;-68
2020/12/28 15:58:46;;;;;;;;;;;;;;;;;;5037303;28;19952;-68
2020/12/28 16:01:12;;;;;;;;;;;;;;;;;;5037104;28;20345;-69
2020/12/28 16:03:38;;;;;;;;;;;;;;;;;;5043628;28;19988;-68
2020/12/28 16:06:04;;;;;;;;;;;;;;;;;;5066233;28;19913;-69
2020/12/28 16:08:30;;;;;;;;;;;;;;;;;;5052800;28;19913;-68
2020/12/28 16:10:56;;;;;;;;;;;;;;;;;;5060409;28;19931;-69
2020/12/28 16:13:22;;;;;;;;;;;;;;;;;;5046711;28;20489;-67
2020/12/28 16:15:48;;;;;;;;;;;;;;;;;;5051287;28;20043;-69
2020/12/28 16:18:14;;;;;;;;;;;;;;;;;;5051030;28;19951;-68
2020/12/28 16:20:40;;;;;;;;;;;;;;;;;;5050940;28;19960;-70
2020/12/28 16:23:06;;;;;;;;;;;;;;;;;;5049543;28;19912;-69
2020/12/28 16:25:33;;;;;;;;;;;;;;;;;;5050005;28;19944;-70
2020/12/28 16:27:59;;;;;;;;;;;;;;;;;;5047083;28;19921;-70
2020/12/28 16:30:25;;;;;;;;;;;;;;;;;;5046783;28;19916;-69
2020/12/28 16:32:51;;;;;;;;;;;;;;;;;;5051093;28;19923;-70
2020/12/28 16:35:17;;;;;;;;;;;;;;;;;;5051403;28;19921;-69
2020/12/28 16:37:43;;;;;;;;;;;;;;;;;;5056316;28;19952;-69
2020/12/28 16:40:09;;;;;;;;;;;;;;;;;;5054908;28;19913;-71